sensor_id;sensor_type;location;lat;lon;timestamp;P1;durP1;ratioP1;P2;durP2;ratioP2
49566;SDS011;35472;50.514;30.448;2022-09-09T00:04:58;3.78;;;2.03;;
49566;SDS011;35472;50.514;30.448;2022-09-09T00:15:36;5.50;;;2.38;;
49566;SDS011;35472;50.514;30.448;2022-09-09T00:18:30;1.42;;;1.30;;
49566;SDS011;35472;50.514;30.448;2022-09-09T00:21:05;4.22;;;2.40;;
49566;SDS011;35472;50.514;30.448;2022-09-09T00:23:44;3.22;;;2.28;;
49566;SDS011;35472;50.514;30.448;2022-09-09T00:31:37;2.65;;;2.10;;
49566;SDS011;35472;50.514;30.448;2022-09-09T00:36:41;3.10;;;1.92;;
49566;SDS011;35472;50.514;30.448;2022-09-09T00:44:36;5.00;;;3.10;;
49566;SDS011;35472;50.514;30.448;2022-09-09T00:47:12;11.82;;;2.50;;
49566;SDS011;35472;50.514;30.448;2022-09-09T00:50:00;2.45;;;2.08;;
49566;SDS011;35472;50.514;30.448;2022-09-09T00:55:05;4.15;;;2.80;;
49566;SDS011;35472;50.514;30.448;2022-09-09T00:57:40;2.60;;;2.38;;
49566;SDS011;35472;50.514;30.448;2022-09-09T01:11:03;5.75;;;2.15;;
49566;SDS011;35472;50.514;30.448;2022-09-09T01:13:33;3.90;;;2.03;;
49566;SDS011;35472;50.514;30.448;2022-09-09T01:16:04;4.18;;;2.10;;
49566;SDS011;35472;50.514;30.448;2022-09-09T01:18:40;3.38;;;2.03;;
49566;SDS011;35472;50.514;30.448;2022-09-09T01:26:41;2.15;;;1.88;;
49566;SDS011;35472;50.514;30.448;2022-09-09T01:29:18;2.85;;;2.20;;
49566;SDS011;35472;50.514;30.448;2022-09-09T01:34:19;4.20;;;2.53;;
49566;SDS011;35472;50.514;30.448;2022-09-09T01:36:50;3.70;;;1.67;;
49566;SDS011;35472;50.514;30.448;2022-09-09T01:39:29;3.17;;;1.90;;
49566;SDS011;35472;50.514;30.448;2022-09-09T01:42:01;2.83;;;2.38;;
49566;SDS011;35472;50.514;30.448;2022-09-09T01:44:28;3.88;;;2.53;;
49566;SDS011;35472;50.514;30.448;2022-09-09T01:46:55;3.17;;;2.22;;
49566;SDS011;35472;50.514;30.448;2022-09-09T01:49:21;2.78;;;2.28;;
49566;SDS011;35472;50.514;30.448;2022-09-09T01:51:52;3.35;;;2.35;;
49566;SDS011;35472;50.514;30.448;2022-09-09T01:54:28;2.90;;;2.05;;
49566;SDS011;35472;50.514;30.448;2022-09-09T01:59:53;3.78;;;2.22;;
49566;SDS011;35472;50.514;30.448;2022-09-09T02:02:19;2.83;;;2.00;;
49566;SDS011;35472;50.514;30.448;2022-09-09T02:07:43;8.57;;;2.90;;
49566;SDS011;35472;50.514;30.448;2022-09-09T02:10:37;5.72;;;2.17;;
49566;SDS011;35472;50.514;30.448;2022-09-09T02:13:18;5.25;;;2.67;;
49566;SDS011;35472;50.514;30.448;2022-09-09T02:16:00;3.88;;;2.10;;
49566;SDS011;35472;50.514;30.448;2022-09-09T02:18:30;4.47;;;2.28;;
49566;SDS011;35472;50.514;30.448;2022-09-09T02:21:03;2.67;;;2.20;;
49566;SDS011;35472;50.514;30.448;2022-09-09T02:23:32;3.67;;;2.17;;
49566;SDS011;35472;50.514;30.448;2022-09-09T02:26:02;3.83;;;2.28;;
49566;SDS011;35472;50.514;30.448;2022-09-09T02:28:30;3.53;;;1.73;;
49566;SDS011;35472;50.514;30.448;2022-09-09T02:30:58;3.33;;;2.05;;
49566;SDS011;35472;50.514;30.448;2022-09-09T02:33:33;8.95;;;3.50;;
49566;SDS011;35472;50.514;30.448;2022-09-09T02:36:02;5.13;;;2.90;;
49566;SDS011;35472;50.514;30.448;2022-09-09T02:38:33;7.25;;;2.72;;
49566;SDS011;35472;50.514;30.448;2022-09-09T02:41:07;3.20;;;2.67;;
49566;SDS011;35472;50.514;30.448;2022-09-09T02:43:34;3.05;;;2.20;;
49566;SDS011;35472;50.514;30.448;2022-09-09T02:49:00;5.95;;;2.20;;
49566;SDS011;35472;50.514;30.448;2022-09-09T02:51:40;5.22;;;2.47;;
49566;SDS011;35472;50.514;30.448;2022-09-09T02:54:57;6.88;;;3.10;;
49566;SDS011;35472;50.514;30.448;2022-09-09T02:57:11;4.95;;;3.00;;
49566;SDS011;35472;50.514;30.448;2022-09-09T02:59:40;5.05;;;2.28;;
49566;SDS011;35472;50.514;30.448;2022-09-09T03:02:07;4.30;;;2.95;;
49566;SDS011;35472;50.514;30.448;2022-09-09T03:04:35;3.75;;;2.65;;
49566;SDS011;35472;50.514;30.448;2022-09-09T03:07:00;4.43;;;2.55;;
49566;SDS011;35472;50.514;30.448;2022-09-09T03:09:26;8.00;;;2.83;;
49566;SDS011;35472;50.514;30.448;2022-09-09T03:11:52;2.97;;;2.40;;
49566;SDS011;35472;50.514;30.448;2022-09-09T03:14:20;3.38;;;2.33;;
49566;SDS011;35472;50.514;30.448;2022-09-09T03:16:49;6.47;;;3.13;;
49566;SDS011;35472;50.514;30.448;2022-09-09T03:19:15;4.00;;;2.85;;
49566;SDS011;35472;50.514;30.448;2022-09-09T03:21:41;3.88;;;2.60;;
49566;SDS011;35472;50.514;30.448;2022-09-09T03:24:06;5.22;;;3.17;;
49566;SDS011;35472;50.514;30.448;2022-09-09T03:26:36;5.45;;;2.75;;
49566;SDS011;35472;50.514;30.448;2022-09-09T03:29:03;9.05;;;2.83;;
49566;SDS011;35472;50.514;30.448;2022-09-09T03:31:31;4.20;;;2.58;;
49566;SDS011;35472;50.514;30.448;2022-09-09T03:34:01;3.90;;;2.85;;
49566;SDS011;35472;50.514;30.448;2022-09-09T03:36:30;3.15;;;2.28;;
49566;SDS011;35472;50.514;30.448;2022-09-09T03:38:55;7.97;;;2.70;;
49566;SDS011;35472;50.514;30.448;2022-09-09T03:41:22;4.72;;;2.95;;
49566;SDS011;35472;50.514;30.448;2022-09-09T03:43:52;3.08;;;2.15;;
49566;SDS011;35472;50.514;30.448;2022-09-09T03:46:20;5.68;;;3.75;;
49566;SDS011;35472;50.514;30.448;2022-09-09T03:48:47;6.43;;;3.33;;
49566;SDS011;35472;50.514;30.448;2022-09-09T03:51:12;3.33;;;2.40;;
49566;SDS011;35472;50.514;30.448;2022-09-09T03:53:39;4.53;;;2.72;;
49566;SDS011;35472;50.514;30.448;2022-09-09T03:56:06;3.47;;;2.97;;
49566;SDS011;35472;50.514;30.448;2022-09-09T03:58:32;3.15;;;2.55;;
49566;SDS011;35472;50.514;30.448;2022-09-09T04:01:05;5.50;;;2.25;;
49566;SDS011;35472;50.514;30.448;2022-09-09T04:03:34;6.60;;;3.45;;
49566;SDS011;35472;50.514;30.448;2022-09-09T04:06:00;4.10;;;2.55;;
49566;SDS011;35472;50.514;30.448;2022-09-09T04:08:29;3.80;;;2.78;;
49566;SDS011;35472;50.514;30.448;2022-09-09T04:10:57;3.75;;;2.80;;
49566;SDS011;35472;50.514;30.448;2022-09-09T04:13:24;7.60;;;2.60;;
49566;SDS011;35472;50.514;30.448;2022-09-09T04:15:54;4.35;;;2.33;;
49566;SDS011;35472;50.514;30.448;2022-09-09T04:18:21;4.75;;;2.33;;
49566;SDS011;35472;50.514;30.448;2022-09-09T04:20:48;4.95;;;3.30;;
49566;SDS011;35472;50.514;30.448;2022-09-09T04:23:16;5.78;;;2.53;;
49566;SDS011;35472;50.514;30.448;2022-09-09T04:25:47;5.70;;;2.92;;
49566;SDS011;35472;50.514;30.448;2022-09-09T04:28:14;2.28;;;2.05;;
49566;SDS011;35472;50.514;30.448;2022-09-09T04:30:41;4.47;;;3.22;;
49566;SDS011;35472;50.514;30.448;2022-09-09T04:33:08;4.40;;;2.75;;
49566;SDS011;35472;50.514;30.448;2022-09-09T04:35:34;4.57;;;2.50;;
49566;SDS011;35472;50.514;30.448;2022-09-09T04:38:00;5.75;;;2.95;;
49566;SDS011;35472;50.514;30.448;2022-09-09T04:40:29;4.57;;;2.70;;
49566;SDS011;35472;50.514;30.448;2022-09-09T04:42:55;6.03;;;2.75;;
49566;SDS011;35472;50.514;30.448;2022-09-09T04:45:23;3.92;;;2.42;;
49566;SDS011;35472;50.514;30.448;2022-09-09T04:47:49;3.28;;;2.70;;
49566;SDS011;35472;50.514;30.448;2022-09-09T04:50:14;3.10;;;2.28;;
49566;SDS011;35472;50.514;30.448;2022-09-09T04:52:45;3.40;;;3.10;;
49566;SDS011;35472;50.514;30.448;2022-09-09T04:55:10;4.15;;;3.15;;
49566;SDS011;35472;50.514;30.448;2022-09-09T04:57:38;3.15;;;2.45;;
49566;SDS011;35472;50.514;30.448;2022-09-09T05:00:04;8.73;;;2.67;;
49566;SDS011;35472;50.514;30.448;2022-09-09T05:02:36;4.10;;;2.88;;
49566;SDS011;35472;50.514;30.448;2022-09-09T05:05:03;4.60;;;2.40;;
49566;SDS011;35472;50.514;30.448;2022-09-09T05:07:29;5.47;;;2.97;;
49566;SDS011;35472;50.514;30.448;2022-09-09T05:09:56;4.72;;;2.88;;
49566;SDS011;35472;50.514;30.448;2022-09-09T05:12:23;6.57;;;2.78;;
49566;SDS011;35472;50.514;30.448;2022-09-09T05:14:53;3.47;;;2.85;;
49566;SDS011;35472;50.514;30.448;2022-09-09T05:17:19;5.63;;;2.95;;
49566;SDS011;35472;50.514;30.448;2022-09-09T05:19:44;3.35;;;2.70;;
49566;SDS011;35472;50.514;30.448;2022-09-09T05:22:10;2.78;;;2.33;;
49566;SDS011;35472;50.514;30.448;2022-09-09T05:24:42;5.38;;;3.17;;
49566;SDS011;35472;50.514;30.448;2022-09-09T05:27:07;3.40;;;2.70;;
49566;SDS011;35472;50.514;30.448;2022-09-09T05:29:37;4.00;;;2.95;;
49566;SDS011;35472;50.514;30.448;2022-09-09T05:32:04;6.57;;;3.03;;
49566;SDS011;35472;50.514;30.448;2022-09-09T05:34:30;5.63;;;3.83;;
49566;SDS011;35472;50.514;30.448;2022-09-09T05:36:55;4.03;;;2.97;;
49566;SDS011;35472;50.514;30.448;2022-09-09T05:39:22;4.20;;;2.95;;
49566;SDS011;35472;50.514;30.448;2022-09-09T05:41:48;2.95;;;2.50;;
49566;SDS011;35472;50.514;30.448;2022-09-09T05:44:13;4.85;;;3.28;;
49566;SDS011;35472;50.514;30.448;2022-09-09T05:46:38;6.78;;;3.67;;
49566;SDS011;35472;50.514;30.448;2022-09-09T05:49:05;8.55;;;3.25;;
49566;SDS011;35472;50.514;30.448;2022-09-09T05:51:32;3.35;;;3.05;;
49566;SDS011;35472;50.514;30.448;2022-09-09T05:54:01;6.53;;;3.13;;
49566;SDS011;35472;50.514;30.448;2022-09-09T05:56:30;6.00;;;3.55;;
49566;SDS011;35472;50.514;30.448;2022-09-09T05:58:57;6.88;;;3.75;;
49566;SDS011;35472;50.514;30.448;2022-09-09T06:01:25;3.92;;;3.50;;
49566;SDS011;35472;50.514;30.448;2022-09-09T06:03:56;5.28;;;4.03;;
49566;SDS011;35472;50.514;30.448;2022-09-09T06:06:23;5.70;;;3.88;;
49566;SDS011;35472;50.514;30.448;2022-09-09T06:08:56;7.40;;;4.22;;
49566;SDS011;35472;50.514;30.448;2022-09-09T06:11:28;4.90;;;4.20;;
49566;SDS011;35472;50.514;30.448;2022-09-09T06:13:59;7.15;;;6.03;;
49566;SDS011;35472;50.514;30.448;2022-09-09T06:16:27;5.25;;;4.75;;
49566;SDS011;35472;50.514;30.448;2022-09-09T06:18:54;4.28;;;2.88;;
49566;SDS011;35472;50.514;30.448;2022-09-09T06:21:24;5.10;;;3.35;;
49566;SDS011;35472;50.514;30.448;2022-09-09T06:23:51;4.65;;;3.15;;
49566;SDS011;35472;50.514;30.448;2022-09-09T06:26:19;5.43;;;3.05;;
49566;SDS011;35472;50.514;30.448;2022-09-09T06:28:49;3.95;;;3.45;;
49566;SDS011;35472;50.514;30.448;2022-09-09T06:31:16;5.20;;;3.08;;
49566;SDS011;35472;50.514;30.448;2022-09-09T06:33:43;3.95;;;2.85;;
49566;SDS011;35472;50.514;30.448;2022-09-09T06:36:12;4.13;;;2.50;;
49566;SDS011;35472;50.514;30.448;2022-09-09T06:38:41;3.67;;;3.00;;
49566;SDS011;35472;50.514;30.448;2022-09-09T06:41:08;8.57;;;4.10;;
49566;SDS011;35472;50.514;30.448;2022-09-09T06:43:34;4.55;;;3.38;;
49566;SDS011;35472;50.514;30.448;2022-09-09T06:46:05;5.82;;;2.90;;
49566;SDS011;35472;50.514;30.448;2022-09-09T06:48:35;3.28;;;2.97;;
49566;SDS011;35472;50.514;30.448;2022-09-09T06:53:27;2.85;;;2.45;;
49566;SDS011;35472;50.514;30.448;2022-09-09T06:55:53;2.90;;;2.58;;
49566;SDS011;35472;50.514;30.448;2022-09-09T06:58:20;3.08;;;2.63;;
49566;SDS011;35472;50.514;30.448;2022-09-09T07:00:47;4.18;;;2.90;;
49566;SDS011;35472;50.514;30.448;2022-09-09T07:03:13;3.78;;;2.63;;
49566;SDS011;35472;50.514;30.448;2022-09-09T07:05:38;2.35;;;2.13;;
49566;SDS011;35472;50.514;30.448;2022-09-09T07:08:04;4.38;;;3.10;;
49566;SDS011;35472;50.514;30.448;2022-09-09T07:10:30;4.40;;;3.22;;
49566;SDS011;35472;50.514;30.448;2022-09-09T07:12:56;8.43;;;2.17;;
49566;SDS011;35472;50.514;30.448;2022-09-09T07:15:23;4.30;;;3.20;;
49566;SDS011;35472;50.514;30.448;2022-09-09T07:17:49;3.33;;;2.65;;
49566;SDS011;35472;50.514;30.448;2022-09-09T07:20:15;2.60;;;2.30;;
49566;SDS011;35472;50.514;30.448;2022-09-09T07:22:41;4.60;;;2.42;;
49566;SDS011;35472;50.514;30.448;2022-09-09T07:25:08;3.47;;;2.30;;
49566;SDS011;35472;50.514;30.448;2022-09-09T07:27:35;2.67;;;2.33;;
49566;SDS011;35472;50.514;30.448;2022-09-09T07:30:00;2.58;;;2.00;;
49566;SDS011;35472;50.514;30.448;2022-09-09T07:32:27;2.97;;;1.98;;
49566;SDS011;35472;50.514;30.448;2022-09-09T07:34:55;4.75;;;1.65;;
49566;SDS011;35472;50.514;30.448;2022-09-09T07:37:23;2.35;;;1.85;;
49566;SDS011;35472;50.514;30.448;2022-09-09T07:39:50;2.05;;;1.58;;
49566;SDS011;35472;50.514;30.448;2022-09-09T07:42:16;1.98;;;1.58;;
49566;SDS011;35472;50.514;30.448;2022-09-09T07:44:42;4.07;;;2.00;;
49566;SDS011;35472;50.514;30.448;2022-09-09T07:47:11;3.92;;;2.15;;
49566;SDS011;35472;50.514;30.448;2022-09-09T07:49:46;2.70;;;1.40;;
49566;SDS011;35472;50.514;30.448;2022-09-09T07:52:14;3.30;;;1.42;;
49566;SDS011;35472;50.514;30.448;2022-09-09T07:54:41;5.55;;;1.70;;
49566;SDS011;35472;50.514;30.448;2022-09-09T07:57:09;3.75;;;1.80;;
49566;SDS011;35472;50.514;30.448;2022-09-09T07:59:36;2.35;;;1.80;;
49566;SDS011;35472;50.514;30.448;2022-09-09T08:02:02;2.80;;;1.77;;
49566;SDS011;35472;50.514;30.448;2022-09-09T08:04:30;4.18;;;1.65;;
49566;SDS011;35472;50.514;30.448;2022-09-09T08:06:57;2.83;;;2.20;;
49566;SDS011;35472;50.514;30.448;2022-09-09T08:09:25;2.88;;;1.77;;
49566;SDS011;35472;50.514;30.448;2022-09-09T08:11:57;2.50;;;1.85;;
49566;SDS011;35472;50.514;30.448;2022-09-09T08:14:24;2.22;;;1.80;;
49566;SDS011;35472;50.514;30.448;2022-09-09T08:16:50;2.38;;;1.52;;
49566;SDS011;35472;50.514;30.448;2022-09-09T08:19:19;4.28;;;1.27;;
49566;SDS011;35472;50.514;30.448;2022-09-09T08:21:45;2.10;;;1.25;;
49566;SDS011;35472;50.514;30.448;2022-09-09T08:24:12;3.45;;;1.42;;
49566;SDS011;35472;50.514;30.448;2022-09-09T08:26:41;2.33;;;1.15;;
49566;SDS011;35472;50.514;30.448;2022-09-09T08:29:10;1.60;;;1.13;;
49566;SDS011;35472;50.514;30.448;2022-09-09T08:31:45;1.42;;;0.95;;
49566;SDS011;35472;50.514;30.448;2022-09-09T08:34:22;1.67;;;1.08;;
49566;SDS011;35472;50.514;30.448;2022-09-09T08:36:50;2.78;;;1.17;;
49566;SDS011;35472;50.514;30.448;2022-09-09T08:39:19;3.33;;;1.30;;
49566;SDS011;35472;50.514;30.448;2022-09-09T08:41:57;3.58;;;1.48;;
49566;SDS011;35472;50.514;30.448;2022-09-09T08:47:54;3.38;;;1.20;;
49566;SDS011;35472;50.514;30.448;2022-09-09T08:50:27;3.63;;;1.77;;
49566;SDS011;35472;50.514;30.448;2022-09-09T08:55:56;2.65;;;1.42;;
49566;SDS011;35472;50.514;30.448;2022-09-09T08:58:35;2.30;;;1.80;;
49566;SDS011;35472;50.514;30.448;2022-09-09T09:09:08;1.85;;;1.38;;
49566;SDS011;35472;50.514;30.448;2022-09-09T09:14:35;2.78;;;1.25;;
49566;SDS011;35472;50.514;30.448;2022-09-09T09:17:08;1.60;;;0.85;;
49566;SDS011;35472;50.514;30.448;2022-09-09T09:19:38;3.75;;;1.10;;
49566;SDS011;35472;50.514;30.448;2022-09-09T09:24:55;2.15;;;1.17;;
49566;SDS011;35472;50.514;30.448;2022-09-09T09:30:47;1.10;;;0.90;;
49566;SDS011;35472;50.514;30.448;2022-09-09T09:33:23;2.85;;;1.30;;
49566;SDS011;35472;50.514;30.448;2022-09-09T09:35:53;1.38;;;1.02;;
49566;SDS011;35472;50.514;30.448;2022-09-09T09:38:21;2.03;;;1.30;;
49566;SDS011;35472;50.514;30.448;2022-09-09T09:40:53;2.72;;;1.40;;
49566;SDS011;35472;50.514;30.448;2022-09-09T09:43:24;2.67;;;0.80;;
49566;SDS011;35472;50.514;30.448;2022-09-09T09:45:52;1.38;;;1.15;;
49566;SDS011;35472;50.514;30.448;2022-09-09T09:48:18;1.05;;;0.95;;
49566;SDS011;35472;50.514;30.448;2022-09-09T09:55:56;2.17;;;1.17;;
49566;SDS011;35472;50.514;30.448;2022-09-09T09:58:25;1.80;;;1.13;;
49566;SDS011;35472;50.514;30.448;2022-09-09T10:00:53;1.73;;;1.13;;
49566;SDS011;35472;50.514;30.448;2022-09-09T10:03:32;2.58;;;1.00;;
49566;SDS011;35472;50.514;30.448;2022-09-09T10:06:05;2.15;;;1.10;;
49566;SDS011;35472;50.514;30.448;2022-09-09T10:08:32;2.50;;;0.90;;
49566;SDS011;35472;50.514;30.448;2022-09-09T10:13:50;2.38;;;1.20;;
49566;SDS011;35472;50.514;30.448;2022-09-09T10:16:28;3.80;;;1.00;;
49566;SDS011;35472;50.514;30.448;2022-09-09T10:19:09;1.33;;;0.90;;
49566;SDS011;35472;50.514;30.448;2022-09-09T10:32:44;1.13;;;0.80;;
49566;SDS011;35472;50.514;30.448;2022-09-09T10:35:27;1.00;;;0.80;;
49566;SDS011;35472;50.514;30.448;2022-09-09T10:38:28;2.00;;;1.13;;
49566;SDS011;35472;50.514;30.448;2022-09-09T10:55:00;0.98;;;0.82;;
49566;SDS011;35472;50.514;30.448;2022-09-09T11:00:14;1.30;;;1.13;;
49566;SDS011;35472;50.514;30.448;2022-09-09T11:02:43;3.83;;;1.35;;
49566;SDS011;35472;50.514;30.448;2022-09-09T11:05:16;1.20;;;0.90;;
49566;SDS011;35472;50.514;30.448;2022-09-09T11:07:49;0.70;;;0.70;;
49566;SDS011;35472;50.514;30.448;2022-09-09T11:10:36;2.58;;;1.00;;
49566;SDS011;35472;50.514;30.448;2022-09-09T11:13:10;3.38;;;1.25;;
49566;SDS011;35472;50.514;30.448;2022-09-09T11:15:46;0.77;;;0.77;;
49566;SDS011;35472;50.514;30.448;2022-09-09T11:18:19;1.52;;;1.10;;
49566;SDS011;35472;50.514;30.448;2022-09-09T11:20:50;2.67;;;1.15;;
49566;SDS011;35472;50.514;30.448;2022-09-09T11:23:22;2.45;;;1.00;;
49566;SDS011;35472;50.514;30.448;2022-09-09T11:25:59;1.90;;;1.00;;
49566;SDS011;35472;50.514;30.448;2022-09-09T11:31:26;2.58;;;0.98;;
49566;SDS011;35472;50.514;30.448;2022-09-09T11:40:09;9.77;;;1.80;;
49566;SDS011;35472;50.514;30.448;2022-09-09T11:42:42;0.80;;;0.80;;
49566;SDS011;35472;50.514;30.448;2022-09-09T11:45:19;1.55;;;1.00;;
49566;SDS011;35472;50.514;30.448;2022-09-09T11:51:00;3.67;;;1.23;;
49566;SDS011;35472;50.514;30.448;2022-09-09T11:53:26;3.65;;;1.40;;
49566;SDS011;35472;50.514;30.448;2022-09-09T11:58:43;2.10;;;0.93;;
49566;SDS011;35472;50.514;30.448;2022-09-09T12:01:30;5.30;;;1.30;;
49566;SDS011;35472;50.514;30.448;2022-09-09T12:04:22;1.20;;;0.85;;
49566;SDS011;35472;50.514;30.448;2022-09-09T12:06:58;2.47;;;1.00;;
49566;SDS011;35472;50.514;30.448;2022-09-09T12:09:31;2.42;;;0.80;;
49566;SDS011;35472;50.514;30.448;2022-09-09T12:19:39;3.85;;;1.10;;
49566;SDS011;35472;50.514;30.448;2022-09-09T12:22:07;2.10;;;1.10;;
49566;SDS011;35472;50.514;30.448;2022-09-09T12:24:56;3.95;;;1.23;;
49566;SDS011;35472;50.514;30.448;2022-09-09T12:27:34;2.08;;;0.95;;
49566;SDS011;35472;50.514;30.448;2022-09-09T12:30:14;3.55;;;1.00;;
49566;SDS011;35472;50.514;30.448;2022-09-09T12:32:41;1.70;;;1.10;;
49566;SDS011;35472;50.514;30.448;2022-09-09T12:35:11;3.10;;;1.02;;
49566;SDS011;35472;50.514;30.448;2022-09-09T12:37:46;2.65;;;1.00;;
49566;SDS011;35472;50.514;30.448;2022-09-09T12:40:29;1.00;;;0.88;;
49566;SDS011;35472;50.514;30.448;2022-09-09T12:42:57;1.80;;;0.80;;
49566;SDS011;35472;50.514;30.448;2022-09-09T12:45:26;1.90;;;0.68;;
49566;SDS011;35472;50.514;30.448;2022-09-09T12:47:59;1.02;;;0.85;;
49566;SDS011;35472;50.514;30.448;2022-09-09T12:50:32;2.90;;;1.33;;
49566;SDS011;35472;50.514;30.448;2022-09-09T12:53:04;3.55;;;1.42;;
49566;SDS011;35472;50.514;30.448;2022-09-09T12:55:35;1.58;;;1.13;;
49566;SDS011;35472;50.514;30.448;2022-09-09T12:58:03;0.95;;;0.93;;
49566;SDS011;35472;50.514;30.448;2022-09-09T13:00:31;2.40;;;0.90;;
49566;SDS011;35472;50.514;30.448;2022-09-09T13:02:58;2.25;;;1.00;;
49566;SDS011;35472;50.514;30.448;2022-09-09T13:05:36;1.63;;;0.90;;
49566;SDS011;35472;50.514;30.448;2022-09-09T13:08:08;3.60;;;1.08;;
49566;SDS011;35472;50.514;30.448;2022-09-09T13:10:37;2.45;;;1.15;;
49566;SDS011;35472;50.514;30.448;2022-09-09T13:13:14;1.70;;;1.00;;
49566;SDS011;35472;50.514;30.448;2022-09-09T13:15:48;4.25;;;0.75;;
49566;SDS011;35472;50.514;30.448;2022-09-09T13:18:22;2.08;;;0.80;;
49566;SDS011;35472;50.514;30.448;2022-09-09T13:20:50;5.93;;;1.30;;
49566;SDS011;35472;50.514;30.448;2022-09-09T13:23:17;2.53;;;0.95;;
49566;SDS011;35472;50.514;30.448;2022-09-09T13:26:01;1.70;;;1.30;;
49566;SDS011;35472;50.514;30.448;2022-09-09T13:28:48;2.10;;;1.20;;
49566;SDS011;35472;50.514;30.448;2022-09-09T13:31:22;2.72;;;1.55;;
49566;SDS011;35472;50.514;30.448;2022-09-09T13:33:52;3.55;;;1.95;;
49566;SDS011;35472;50.514;30.448;2022-09-09T13:36:27;2.47;;;1.10;;
49566;SDS011;35472;50.514;30.448;2022-09-09T13:38:55;2.63;;;1.55;;
49566;SDS011;35472;50.514;30.448;2022-09-09T13:41:43;2.28;;;1.60;;
49566;SDS011;35472;50.514;30.448;2022-09-09T13:44:23;1.38;;;0.98;;
49566;SDS011;35472;50.514;30.448;2022-09-09T13:47:01;3.92;;;1.50;;
49566;SDS011;35472;50.514;30.448;2022-09-09T13:49:39;2.88;;;2.13;;
49566;SDS011;35472;50.514;30.448;2022-09-09T13:54:34;7.07;;;2.72;;
49566;SDS011;35472;50.514;30.448;2022-09-09T13:56:59;2.85;;;1.95;;
49566;SDS011;35472;50.514;30.448;2022-09-09T13:59:26;1.17;;;1.05;;
49566;SDS011;35472;50.514;30.448;2022-09-09T14:01:52;1.92;;;1.35;;
49566;SDS011;35472;50.514;30.448;2022-09-09T14:04:17;1.35;;;0.98;;
49566;SDS011;35472;50.514;30.448;2022-09-09T14:06:45;3.22;;;1.95;;
49566;SDS011;35472;50.514;30.448;2022-09-09T14:09:12;3.42;;;1.60;;
49566;SDS011;35472;50.514;30.448;2022-09-09T14:11:39;9.20;;;2.58;;
49566;SDS011;35472;50.514;30.448;2022-09-09T14:14:05;3.88;;;1.67;;
49566;SDS011;35472;50.514;30.448;2022-09-09T14:16:31;6.05;;;2.85;;
49566;SDS011;35472;50.514;30.448;2022-09-09T14:18:56;3.75;;;1.50;;
49566;SDS011;35472;50.514;30.448;2022-09-09T14:21:22;1.15;;;0.82;;
49566;SDS011;35472;50.514;30.448;2022-09-09T14:23:48;4.22;;;1.30;;
49566;SDS011;35472;50.514;30.448;2022-09-09T14:26:14;2.20;;;1.23;;
49566;SDS011;35472;50.514;30.448;2022-09-09T14:28:39;5.90;;;3.10;;
49566;SDS011;35472;50.514;30.448;2022-09-09T14:31:05;2.13;;;1.40;;
49566;SDS011;35472;50.514;30.448;2022-09-09T14:33:31;2.20;;;1.50;;
49566;SDS011;35472;50.514;30.448;2022-09-09T14:35:57;5.38;;;1.48;;
49566;SDS011;35472;50.514;30.448;2022-09-09T14:38:23;2.83;;;1.50;;
49566;SDS011;35472;50.514;30.448;2022-09-09T14:40:49;1.33;;;1.05;;
49566;SDS011;35472;50.514;30.448;2022-09-09T14:43:15;3.05;;;1.42;;
49566;SDS011;35472;50.514;30.448;2022-09-09T14:45:40;2.10;;;1.10;;
49566;SDS011;35472;50.514;30.448;2022-09-09T14:48:06;2.25;;;1.15;;
49566;SDS011;35472;50.514;30.448;2022-09-09T14:50:31;2.78;;;1.65;;
49566;SDS011;35472;50.514;30.448;2022-09-09T14:52:57;7.32;;;4.68;;
49566;SDS011;35472;50.514;30.448;2022-09-09T14:55:23;3.10;;;1.33;;
49566;SDS011;35472;50.514;30.448;2022-09-09T14:57:48;3.20;;;1.83;;
49566;SDS011;35472;50.514;30.448;2022-09-09T15:00:14;3.63;;;1.73;;
49566;SDS011;35472;50.514;30.448;2022-09-09T15:02:39;3.80;;;1.33;;
49566;SDS011;35472;50.514;30.448;2022-09-09T15:05:05;4.32;;;1.40;;
49566;SDS011;35472;50.514;30.448;2022-09-09T15:07:31;4.53;;;1.58;;
49566;SDS011;35472;50.514;30.448;2022-09-09T15:09:57;3.78;;;1.88;;
49566;SDS011;35472;50.514;30.448;2022-09-09T15:12:23;2.60;;;1.65;;
49566;SDS011;35472;50.514;30.448;2022-09-09T15:14:49;2.75;;;1.98;;
49566;SDS011;35472;50.514;30.448;2022-09-09T15:17:15;2.83;;;1.50;;
49566;SDS011;35472;50.514;30.448;2022-09-09T15:19:41;2.20;;;1.85;;
49566;SDS011;35472;50.514;30.448;2022-09-09T15:22:07;9.88;;;5.18;;
49566;SDS011;35472;50.514;30.448;2022-09-09T15:24:33;3.53;;;2.47;;
49566;SDS011;35472;50.514;30.448;2022-09-09T15:27:00;5.53;;;2.22;;
49566;SDS011;35472;50.514;30.448;2022-09-09T15:29:26;3.17;;;1.95;;
49566;SDS011;35472;50.514;30.448;2022-09-09T15:31:53;4.35;;;2.35;;
49566;SDS011;35472;50.514;30.448;2022-09-09T15:34:19;7.30;;;3.05;;
49566;SDS011;35472;50.514;30.448;2022-09-09T15:36:44;4.95;;;2.58;;
49566;SDS011;35472;50.514;30.448;2022-09-09T15:39:14;5.18;;;2.63;;
49566;SDS011;35472;50.514;30.448;2022-09-09T15:41:45;4.30;;;2.25;;
49566;SDS011;35472;50.514;30.448;2022-09-09T15:44:12;5.43;;;2.38;;
49566;SDS011;35472;50.514;30.448;2022-09-09T15:46:42;5.18;;;2.83;;
49566;SDS011;35472;50.514;30.448;2022-09-09T15:52:03;3.40;;;1.67;;
49566;SDS011;35472;50.514;30.448;2022-09-09T15:54:33;2.75;;;1.73;;
49566;SDS011;35472;50.514;30.448;2022-09-09T15:57:02;4.10;;;2.25;;
49566;SDS011;35472;50.514;30.448;2022-09-09T15:59:30;7.75;;;2.65;;
49566;SDS011;35472;50.514;30.448;2022-09-09T16:01:56;2.67;;;2.05;;
49566;SDS011;35472;50.514;30.448;2022-09-09T16:04:23;3.95;;;1.80;;
49566;SDS011;35472;50.514;30.448;2022-09-09T16:06:53;6.38;;;2.92;;
49566;SDS011;35472;50.514;30.448;2022-09-09T16:09:20;5.20;;;2.20;;
49566;SDS011;35472;50.514;30.448;2022-09-09T16:11:46;3.58;;;2.40;;
49566;SDS011;35472;50.514;30.448;2022-09-09T16:14:13;3.58;;;2.35;;
49566;SDS011;35472;50.514;30.448;2022-09-09T16:16:40;3.97;;;2.72;;
49566;SDS011;35472;50.514;30.448;2022-09-09T16:19:07;8.95;;;2.65;;
49566;SDS011;35472;50.514;30.448;2022-09-09T16:21:42;5.70;;;2.40;;
49566;SDS011;35472;50.514;30.448;2022-09-09T16:24:11;5.40;;;3.45;;
49566;SDS011;35472;50.514;30.448;2022-09-09T16:26:39;6.90;;;2.70;;
49566;SDS011;35472;50.514;30.448;2022-09-09T16:29:08;4.55;;;3.05;;
49566;SDS011;35472;50.514;30.448;2022-09-09T16:31:33;9.50;;;3.58;;
49566;SDS011;35472;50.514;30.448;2022-09-09T16:33:59;6.78;;;2.92;;
49566;SDS011;35472;50.514;30.448;2022-09-09T16:36:26;4.22;;;2.42;;
49566;SDS011;35472;50.514;30.448;2022-09-09T16:38:55;4.70;;;3.08;;
49566;SDS011;35472;50.514;30.448;2022-09-09T16:41:22;6.20;;;2.60;;
49566;SDS011;35472;50.514;30.448;2022-09-09T16:43:52;4.97;;;2.75;;
49566;SDS011;35472;50.514;30.448;2022-09-09T16:46:19;6.60;;;3.53;;
49566;SDS011;35472;50.514;30.448;2022-09-09T16:48:45;4.75;;;3.60;;
49566;SDS011;35472;50.514;30.448;2022-09-09T16:51:13;6.85;;;3.92;;
49566;SDS011;35472;50.514;30.448;2022-09-09T16:53:43;5.30;;;2.80;;
49566;SDS011;35472;50.514;30.448;2022-09-09T16:56:13;8.38;;;3.13;;
49566;SDS011;35472;50.514;30.448;2022-09-09T16:58:41;4.90;;;2.53;;
49566;SDS011;35472;50.514;30.448;2022-09-09T17:01:08;5.07;;;3.55;;
49566;SDS011;35472;50.514;30.448;2022-09-09T17:03:35;10.15;;;3.83;;
49566;SDS011;35472;50.514;30.448;2022-09-09T17:06:02;6.60;;;3.38;;
49566;SDS011;35472;50.514;30.448;2022-09-09T17:08:29;11.18;;;3.63;;
49566;SDS011;35472;50.514;30.448;2022-09-09T17:10:55;10.70;;;3.65;;
49566;SDS011;35472;50.514;30.448;2022-09-09T17:13:20;7.50;;;4.22;;